sensor_id;sensor_type;location;lat;lon;timestamp;pressure;altitude;pressure_sealevel;temperature;humidity
50684;BME280;36654;45.042;38.994;2022-09-09T00:07:10;101680.59;;;15.96;55.07
50684;BME280;36654;45.042;38.994;2022-09-09T00:12:53;101673.47;;;15.95;54.92
50684;BME280;36654;45.042;38.994;2022-09-09T00:15:54;101673.47;;;15.90;54.83
50684;BME280;36654;45.042;38.994;2022-09-09T00:18:40;101675.22;;;15.87;55.15
50684;BME280;36654;45.042;38.994;2022-09-09T00:21:12;101670.75;;;15.84;55.24
50684;BME280;36654;45.042;38.994;2022-09-09T00:23:40;101676.97;;;15.85;55.40
50684;BME280;36654;45.042;38.994;2022-09-09T00:26:27;101654.69;;;15.77;55.33
50684;BME280;36654;45.042;38.994;2022-09-09T00:29:22;101664.47;;;15.71;55.34
50684;BME280;36654;45.042;38.994;2022-09-09T00:31:54;101691.22;;;15.79;55.64
50684;BME280;36654;45.042;38.994;2022-09-09T00:34:24;101705.47;;;15.80;55.71
50684;BME280;36654;45.042;38.994;2022-09-09T00:36:53;101695.69;;;15.79;55.97
50684;BME280;36654;45.042;38.994;2022-09-09T00:39:41;101654.56;;;15.55;56.03
50684;BME280;36654;45.042;38.994;2022-09-09T00:42:16;101713.47;;;15.73;56.07
50684;BME280;36654;45.042;38.994;2022-09-09T00:44:59;101624.09;;;15.24;56.24
50684;BME280;36654;45.042;38.994;2022-09-09T00:56:00;101708.84;;;15.48;56.86
50684;BME280;36654;45.042;38.994;2022-09-09T00:58:27;101709.72;;;15.50;56.63
50684;BME280;36654;45.042;38.994;2022-09-09T01:01:02;101699.91;;;15.46;56.88
50684;BME280;36654;45.042;38.994;2022-09-09T01:03:37;101702.56;;;15.44;56.71
50684;BME280;36654;45.042;38.994;2022-09-09T01:14:32;101669.59;;;15.41;57.09
50684;BME280;36654;45.042;38.994;2022-09-09T01:17:49;101671.38;;;15.42;57.15
50684;BME280;36654;45.042;38.994;2022-09-09T01:28:03;101682.03;;;15.36;57.52
50684;BME280;36654;45.042;38.994;2022-09-09T01:30:33;101686.50;;;15.38;57.61
50684;BME280;36654;45.042;38.994;2022-09-09T01:33:00;101680.25;;;15.35;57.33
50684;BME280;36654;45.042;38.994;2022-09-09T01:38:19;101680.22;;;15.31;57.97
50684;BME280;36654;45.042;38.994;2022-09-09T01:40:45;101671.22;;;15.17;57.96
50684;BME280;36654;45.042;38.994;2022-09-09T01:43:12;101650.66;;;15.07;58.07
50684;BME280;36654;45.042;38.994;2022-09-09T01:45:39;101680.13;;;15.19;58.36
50684;BME280;36654;45.042;38.994;2022-09-09T01:48:06;101642.63;;;14.98;58.06
50684;BME280;36654;45.042;38.994;2022-09-09T01:50:32;101693.50;;;15.22;58.21
50684;BME280;36654;45.042;38.994;2022-09-09T01:52:59;101701.53;;;15.21;58.41
50684;BME280;36654;45.042;38.994;2022-09-09T02:04:06;101686.31;;;15.12;58.45
50684;BME280;36654;45.042;38.994;2022-09-09T02:06:39;101677.41;;;15.08;58.82
50684;BME280;36654;45.042;38.994;2022-09-09T02:09:07;101675.56;;;15.04;58.81
50684;BME280;36654;45.042;38.994;2022-09-09T02:11:35;101689.91;;;15.13;58.94
50684;BME280;36654;45.042;38.994;2022-09-09T02:14:09;101687.16;;;15.05;58.83
50684;BME280;36654;45.042;38.994;2022-09-09T02:16:42;101700.50;;;15.03;58.87
50684;BME280;36654;45.042;38.994;2022-09-09T02:19:13;101675.47;;;14.91;59.24
50684;BME280;36654;45.042;38.994;2022-09-09T02:21:42;101712.06;;;15.04;59.28
50684;BME280;36654;45.042;38.994;2022-09-09T02:24:11;101704.06;;;15.04;59.20
50684;BME280;36654;45.042;38.994;2022-09-09T02:26:41;101707.56;;;14.97;58.96
50684;BME280;36654;45.042;38.994;2022-09-09T02:29:14;101712.97;;;15.03;59.04
50684;BME280;36654;45.042;38.994;2022-09-09T02:31:42;101710.25;;;15.00;59.19
50684;BME280;36654;45.042;38.994;2022-09-09T02:34:10;101648.53;;;14.61;59.65
50684;BME280;36654;45.042;38.994;2022-09-09T02:36:39;101711.09;;;14.94;59.86
50684;BME280;36654;45.042;38.994;2022-09-09T02:39:07;101703.03;;;14.89;59.73
50684;BME280;36654;45.042;38.994;2022-09-09T02:41:35;101713.69;;;14.86;59.76
50684;BME280;36654;45.042;38.994;2022-09-09T02:44:05;101717.22;;;14.82;59.96
50684;BME280;36654;45.042;38.994;2022-09-09T02:54:32;101701.94;;;14.63;60.53
50684;BME280;36654;45.042;38.994;2022-09-09T02:57:06;101706.41;;;14.65;60.57
50684;BME280;36654;45.042;38.994;2022-09-09T02:59:35;101724.25;;;14.71;60.81
50684;BME280;36654;45.042;38.994;2022-09-09T03:02:01;101677.63;;;14.38;60.64
50684;BME280;36654;45.042;38.994;2022-09-09T03:04:28;101724.22;;;14.68;60.72
50684;BME280;36654;45.042;38.994;2022-09-09T03:06:54;101713.66;;;14.80;60.17
50684;BME280;36654;45.042;38.994;2022-09-09T03:09:19;101726.41;;;15.15;59.62
50684;BME280;36654;45.042;38.994;2022-09-09T03:11:45;101701.56;;;15.25;58.82
50684;BME280;36654;45.042;38.994;2022-09-09T03:14:11;101739.38;;;15.87;57.86
50684;BME280;36654;45.042;38.994;2022-09-09T03:16:37;101743.16;;;16.30;56.59
50684;BME280;36654;45.042;38.994;2022-09-09T03:19:02;101741.47;;;16.74;55.31
50684;BME280;36654;45.042;38.994;2022-09-09T03:21:28;101740.66;;;17.12;54.16
50684;BME280;36654;45.042;38.994;2022-09-09T03:23:54;101744.19;;;17.49;53.10
50684;BME280;36654;45.042;38.994;2022-09-09T03:26:20;101733.44;;;17.86;52.26
50684;BME280;36654;45.042;38.994;2022-09-09T03:28:46;101733.31;;;18.18;51.08
50684;BME280;36654;45.042;38.994;2022-09-09T03:31:12;101732.28;;;18.44;50.21
50684;BME280;36654;45.042;38.994;2022-09-09T03:33:38;101701.75;;;18.65;49.16
50684;BME280;36654;45.042;38.994;2022-09-09T03:36:05;101722.06;;;19.01;48.72
50684;BME280;36654;45.042;38.994;2022-09-09T03:38:31;101720.03;;;19.31;47.96
50684;BME280;36654;45.042;38.994;2022-09-09T03:40:57;101717.94;;;19.62;47.14
50684;BME280;36654;45.042;38.994;2022-09-09T03:43:26;101726.63;;;19.89;46.55
50684;BME280;36654;45.042;38.994;2022-09-09T03:45:53;101703.22;;;19.97;46.02
50684;BME280;36654;45.042;38.994;2022-09-09T03:48:22;101726.88;;;20.38;44.99
50684;BME280;36654;45.042;38.994;2022-09-09T03:50:50;101731.16;;;20.53;44.54
50684;BME280;36654;45.042;38.994;2022-09-09T03:53:18;101746.19;;;20.71;44.15
50684;BME280;36654;45.042;38.994;2022-09-09T03:55:45;101739.81;;;20.78;44.00
50684;BME280;36654;45.042;38.994;2022-09-09T03:58:15;101738.88;;;20.81;43.63
50684;BME280;36654;45.042;38.994;2022-09-09T04:00:44;101737.81;;;20.91;43.52
50684;BME280;36654;45.042;38.994;2022-09-09T04:03:18;101741.25;;;21.02;43.07
50684;BME280;36654;45.042;38.994;2022-09-09T04:05:44;101759.88;;;21.16;42.85
50684;BME280;36654;45.042;38.994;2022-09-09T04:08:09;101757.97;;;21.24;42.39
50684;BME280;36654;45.042;38.994;2022-09-09T04:10:36;101722.31;;;21.04;42.38
50684;BME280;36654;45.042;38.994;2022-09-09T04:13:06;101758.78;;;21.28;42.59
50684;BME280;36654;45.042;38.994;2022-09-09T04:15:32;101755.06;;;21.33;42.17
50684;BME280;36654;45.042;38.994;2022-09-09T04:17:58;101753.06;;;21.48;42.01
50684;BME280;36654;45.042;38.994;2022-09-09T04:20:24;101750.97;;;21.64;41.84
50684;BME280;36654;45.042;38.994;2022-09-09T04:22:49;101758.66;;;21.87;41.24
50684;BME280;36654;45.042;38.994;2022-09-09T04:25:15;101751.94;;;22.06;40.63
50684;BME280;36654;45.042;38.994;2022-09-09T04:27:41;101752.69;;;22.14;40.46
50684;BME280;36654;45.042;38.994;2022-09-09T04:30:08;101763.13;;;22.33;39.59
50684;BME280;36654;45.042;38.994;2022-09-09T04:32:34;101756.56;;;22.45;39.54
50684;BME280;36654;45.042;38.994;2022-09-09T04:35:01;101758.16;;;22.55;39.01
50684;BME280;36654;45.042;38.994;2022-09-09T04:37:26;101764.31;;;22.61;39.13
50684;BME280;36654;45.042;38.994;2022-09-09T04:39:52;101760.53;;;22.69;38.72
50684;BME280;36654;45.042;38.994;2022-09-09T04:42:17;101772.69;;;22.88;38.72
50684;BME280;36654;45.042;38.994;2022-09-09T04:44:44;101777.91;;;22.97;38.79
50684;BME280;36654;45.042;38.994;2022-09-09T04:47:10;101772.44;;;23.00;38.31
50684;BME280;36654;45.042;38.994;2022-09-09T04:49:36;101759.06;;;22.93;38.88
50684;BME280;36654;45.042;38.994;2022-09-09T04:52:03;101755.25;;;23.03;38.72
50684;BME280;36654;45.042;38.994;2022-09-09T04:54:29;101764.66;;;23.24;38.05
50684;BME280;36654;45.042;38.994;2022-09-09T04:56:54;101772.38;;;23.39;37.80
50684;BME280;36654;45.042;38.994;2022-09-09T04:59:21;101771.34;;;23.43;38.01
50684;BME280;36654;45.042;38.994;2022-09-09T05:01:47;101769.91;;;23.64;37.75
50684;BME280;36654;45.042;38.994;2022-09-09T05:04:13;101752.84;;;23.61;37.30
50684;BME280;36654;45.042;38.994;2022-09-09T05:06:42;101746.41;;;23.32;37.40
50684;BME280;36654;45.042;38.994;2022-09-09T05:09:08;101771.81;;;22.86;38.35
50684;BME280;36654;45.042;38.994;2022-09-09T05:11:35;101760.59;;;22.24;39.43
50684;BME280;36654;45.042;38.994;2022-09-09T05:14:03;101768.72;;;21.77;40.44
50684;BME280;36654;45.042;38.994;2022-09-09T05:16:30;101712.34;;;21.09;41.13
50684;BME280;36654;45.042;38.994;2022-09-09T05:18:56;101765.44;;;21.07;41.30
50684;BME280;36654;45.042;38.994;2022-09-09T05:21:24;101759.59;;;20.76;42.07
50684;BME280;36654;45.042;38.994;2022-09-09T05:23:53;101778.69;;;20.59;42.75
50684;BME280;36654;45.042;38.994;2022-09-09T05:26:21;101770.75;;;20.46;42.69
50684;BME280;36654;45.042;38.994;2022-09-09T05:28:47;101773.59;;;20.37;43.15
50684;BME280;36654;45.042;38.994;2022-09-09T05:31:14;101722.84;;;20.05;43.16
50684;BME280;36654;45.042;38.994;2022-09-09T05:33:42;101779.19;;;20.22;43.38
50684;BME280;36654;45.042;38.994;2022-09-09T05:36:13;101781.00;;;20.20;43.97
50684;BME280;36654;45.042;38.994;2022-09-09T05:38:47;101784.69;;;20.10;43.73
50684;BME280;36654;45.042;38.994;2022-09-09T05:41:15;101784.84;;;19.97;43.83
50684;BME280;36654;45.042;38.994;2022-09-09T05:43:48;101798.22;;;20.03;43.17
50684;BME280;36654;45.042;38.994;2022-09-09T05:46:21;101785.78;;;19.92;41.74
50684;BME280;36654;45.042;38.994;2022-09-09T05:48:48;101765.25;;;19.83;42.09
50684;BME280;36654;45.042;38.994;2022-09-09T05:51:23;101772.41;;;19.84;42.51
50684;BME280;36654;45.042;38.994;2022-09-09T05:53:50;101785.00;;;19.80;42.11
50684;BME280;36654;45.042;38.994;2022-09-09T05:56:21;101770.81;;;19.68;42.42
50684;BME280;36654;45.042;38.994;2022-09-09T05:58:50;101785.97;;;19.75;42.58
50684;BME280;36654;45.042;38.994;2022-09-09T06:01:25;101794.84;;;19.83;42.79
50684;BME280;36654;45.042;38.994;2022-09-09T06:03:52;101801.06;;;19.88;42.71
50684;BME280;36654;45.042;38.994;2022-09-09T06:06:31;101752.88;;;19.64;42.61
50684;BME280;36654;45.042;38.994;2022-09-09T06:08:58;101778.78;;;19.75;42.94
50684;BME280;36654;45.042;38.994;2022-09-09T06:11:29;101783.22;;;19.82;42.65
50684;BME280;36654;45.042;38.994;2022-09-09T06:13:58;101787.63;;;19.90;42.50
50684;BME280;36654;45.042;38.994;2022-09-09T06:16:25;101777.75;;;19.90;42.38
50684;BME280;36654;45.042;38.994;2022-09-09T06:18:52;101759.91;;;19.80;42.47
50684;BME280;36654;45.042;38.994;2022-09-09T06:21:21;101775.88;;;19.95;41.96
50684;BME280;36654;45.042;38.994;2022-09-09T06:23:48;101787.47;;;20.02;41.17
50684;BME280;36654;45.042;38.994;2022-09-09T06:26:18;101789.16;;;20.09;40.88
50684;BME280;36654;45.042;38.994;2022-09-09T06:28:48;101776.72;;;19.99;40.20
50684;BME280;36654;45.042;38.994;2022-09-09T06:31:19;101754.41;;;19.89;39.13
50684;BME280;36654;45.042;38.994;2022-09-09T06:33:52;101764.19;;;19.96;39.54
50684;BME280;36654;45.042;38.994;2022-09-09T06:36:27;101778.41;;;20.09;39.24
50684;BME280;36654;45.042;38.994;2022-09-09T06:38:53;101784.56;;;20.19;38.90
50684;BME280;36654;45.042;38.994;2022-09-09T06:41:20;101729.22;;;19.96;38.88
50684;BME280;36654;45.042;38.994;2022-09-09T06:43:47;101786.28;;;20.26;38.48
50684;BME280;36654;45.042;38.994;2022-09-09T06:46:14;101777.31;;;20.24;38.88
50684;BME280;36654;45.042;38.994;2022-09-09T06:48:40;101773.75;;;20.25;38.31
50684;BME280;36654;45.042;38.994;2022-09-09T06:53:34;101779.97;;;20.30;37.79
50684;BME280;36654;45.042;38.994;2022-09-09T06:58:49;101777.16;;;20.39;37.52
50684;BME280;36654;45.042;38.994;2022-09-09T07:01:17;101742.38;;;20.22;38.04
50684;BME280;36654;45.042;38.994;2022-09-09T07:03:51;101773.53;;;20.40;38.05
50684;BME280;36654;45.042;38.994;2022-09-09T07:06:26;101779.66;;;20.52;37.79
50684;BME280;36654;45.042;38.994;2022-09-09T07:08:54;101763.69;;;20.39;37.41
50684;BME280;36654;45.042;38.994;2022-09-09T07:11:22;101783.28;;;20.51;37.53
50684;BME280;36654;45.042;38.994;2022-09-09T07:13:48;101773.38;;;20.53;37.46
50684;BME280;36654;45.042;38.994;2022-09-09T07:16:16;101783.97;;;20.68;37.02
50684;BME280;36654;45.042;38.994;2022-09-09T07:18:43;101787.47;;;20.75;36.71
50684;BME280;36654;45.042;38.994;2022-09-09T07:21:11;101790.94;;;20.84;36.76
50684;BME280;36654;45.042;38.994;2022-09-09T07:23:40;101731.97;;;20.63;36.66
50684;BME280;36654;45.042;38.994;2022-09-09T07:26:16;101787.13;;;20.96;36.77
50684;BME280;36654;45.042;38.994;2022-09-09T07:28:42;101767.38;;;20.96;36.27
50684;BME280;36654;45.042;38.994;2022-09-09T07:31:29;101775.28;;;21.08;35.71
50684;BME280;36654;45.042;38.994;2022-09-09T07:34:00;101781.59;;;21.07;35.49
50684;BME280;36654;45.042;38.994;2022-09-09T07:36:28;101777.88;;;21.14;35.22
50684;BME280;36654;45.042;38.994;2022-09-09T07:39:03;101780.41;;;21.25;33.61
50684;BME280;36654;45.042;38.994;2022-09-09T07:41:32;101775.66;;;21.42;33.27
50684;BME280;36654;45.042;38.994;2022-09-09T07:43:59;101769.97;;;21.59;33.67
50684;BME280;36654;45.042;38.994;2022-09-09T07:46:29;101772.31;;;21.76;33.40
50684;BME280;36654;45.042;38.994;2022-09-09T07:48:55;101777.47;;;21.90;33.39
50684;BME280;36654;45.042;38.994;2022-09-09T07:51:27;101779.94;;;22.02;33.43
50684;BME280;36654;45.042;38.994;2022-09-09T07:53:56;101737.06;;;21.87;33.61
50684;BME280;36654;45.042;38.994;2022-09-09T07:56:27;101773.50;;;22.08;33.79
50684;BME280;36654;45.042;38.994;2022-09-09T07:58:54;101758.19;;;22.10;33.49
50684;BME280;36654;45.042;38.994;2022-09-09T08:01:24;101770.38;;;22.31;33.22
50684;BME280;36654;45.042;38.994;2022-09-09T08:03:59;101764.69;;;22.43;33.08
50684;BME280;36654;45.042;38.994;2022-09-09T08:06:26;101702.09;;;22.24;33.14
50684;BME280;36654;45.042;38.994;2022-09-09T08:08:52;101756.31;;;22.57;33.26
50684;BME280;36654;45.042;38.994;2022-09-09T08:11:21;101751.69;;;22.62;33.17
50684;BME280;36654;45.042;38.994;2022-09-09T08:13:48;101719.56;;;22.48;32.91
50684;BME280;36654;45.042;38.994;2022-09-09T08:16:18;101764.84;;;22.77;32.51
50684;BME280;36654;45.042;38.994;2022-09-09T08:18:44;101744.88;;;22.83;32.22
50684;BME280;36654;45.042;38.994;2022-09-09T08:21:12;101746.31;;;22.99;32.33
50684;BME280;36654;45.042;38.994;2022-09-09T08:23:42;101748.78;;;23.09;32.57
50684;BME280;36654;45.042;38.994;2022-09-09T08:26:19;101733.22;;;23.18;31.89
50684;BME280;36654;45.042;38.994;2022-09-09T08:28:46;101727.69;;;23.23;30.40
50684;BME280;36654;45.042;38.994;2022-09-09T08:31:20;101731.25;;;23.25;30.10
50684;BME280;36654;45.042;38.994;2022-09-09T08:33:46;101728.47;;;23.28;29.99
50684;BME280;36654;45.042;38.994;2022-09-09T08:36:20;101724.75;;;23.32;29.56
50684;BME280;36654;45.042;38.994;2022-09-09T08:38:54;101728.22;;;23.37;29.55
50684;BME280;36654;45.042;38.994;2022-09-09T08:44:37;101720.97;;;23.39;28.75
50684;BME280;36654;45.042;38.994;2022-09-09T08:52:41;101731.59;;;23.45;27.09
50684;BME280;36654;45.042;38.994;2022-09-09T08:58:05;101714.25;;;23.54;27.21
50684;BME280;36654;45.042;38.994;2022-09-09T09:00:57;101718.50;;;23.63;27.88
50684;BME280;36654;45.042;38.994;2022-09-09T09:04:50;101721.88;;;23.71;27.75
50684;BME280;36654;45.042;38.994;2022-09-09T09:06:59;101704.56;;;23.78;27.41
50684;BME280;36654;45.042;38.994;2022-09-09T09:11:58;101706.47;;;24.06;25.61
50684;BME280;36654;45.042;38.994;2022-09-09T09:14:29;101669.31;;;23.81;26.67
50684;BME280;36654;45.042;38.994;2022-09-09T09:17:03;101706.47;;;24.06;27.08
50684;BME280;36654;45.042;38.994;2022-09-09T09:19:31;101703.63;;;24.10;27.36
50684;BME280;36654;45.042;38.994;2022-09-09T09:24:55;101698.09;;;24.15;27.97
50684;BME280;36654;45.042;38.994;2022-09-09T09:27:48;101698.94;;;24.17;27.64
50684;BME280;36654;45.042;38.994;2022-09-09T09:30:22;101691.44;;;24.25;27.64
50684;BME280;36654;45.042;38.994;2022-09-09T09:32:55;101671.63;;;24.23;28.12
50684;BME280;36654;45.042;38.994;2022-09-09T09:35:22;101659.16;;;24.19;28.29
50684;BME280;36654;45.042;38.994;2022-09-09T09:37:49;101679.09;;;24.46;28.30
50684;BME280;36654;45.042;38.994;2022-09-09T09:40:20;101631.44;;;24.09;27.24
50684;BME280;36654;45.042;38.994;2022-09-09T09:45:20;101692.03;;;24.37;27.33
50684;BME280;36654;45.042;38.994;2022-09-09T09:48:00;101686.53;;;24.38;27.17
50684;BME280;36654;45.042;38.994;2022-09-09T09:50:25;101689.38;;;24.33;26.85
50684;BME280;36654;45.042;38.994;2022-09-09T09:52:59;101691.28;;;24.31;26.98
50684;BME280;36654;45.042;38.994;2022-09-09T09:55:26;101677.06;;;24.23;26.55
50684;BME280;36654;45.042;38.994;2022-09-09T09:58:01;101691.41;;;24.27;26.39
50684;BME280;36654;45.042;38.994;2022-09-09T10:00:27;101677.16;;;24.20;26.26
50684;BME280;36654;45.042;38.994;2022-09-09T10:02:53;101681.31;;;24.32;26.15
50684;BME280;36654;45.042;38.994;2022-09-09T10:05:30;101690.06;;;24.42;25.90
50684;BME280;36654;45.042;38.994;2022-09-09T10:08:14;101678.13;;;24.49;26.21
50684;BME280;36654;45.042;38.994;2022-09-09T10:13:32;101677.75;;;24.60;26.49
50684;BME280;36654;45.042;38.994;2022-09-09T10:19:10;101658.19;;;24.50;26.44
50684;BME280;36654;45.042;38.994;2022-09-09T10:32:46;101659.78;;;24.57;26.66
50684;BME280;36654;45.042;38.994;2022-09-09T10:49:00;101667.25;;;24.77;26.97
50684;BME280;36654;45.042;38.994;2022-09-09T10:57:41;101670.22;;;24.69;26.90
50684;BME280;36654;45.042;38.994;2022-09-09T11:03:01;101655.94;;;24.64;26.38
50684;BME280;36654;45.042;38.994;2022-09-09T11:05:35;101648.72;;;24.63;26.73
50684;BME280;36654;45.042;38.994;2022-09-09T11:08:12;101637.97;;;24.60;26.72
50684;BME280;36654;45.042;38.994;2022-09-09T11:10:48;101639.44;;;24.70;26.80
50684;BME280;36654;45.042;38.994;2022-09-09T11:13:30;101601.06;;;24.56;26.58
50684;BME280;36654;45.042;38.994;2022-09-09T11:18:40;101603.16;;;24.74;26.81
50684;BME280;36654;45.042;38.994;2022-09-09T11:21:17;101610.16;;;24.82;26.68
50684;BME280;36654;45.042;38.994;2022-09-09T11:23:50;101619.75;;;24.92;26.27
50684;BME280;36654;45.042;38.994;2022-09-09T11:26:29;101608.28;;;24.84;26.60
50684;BME280;36654;45.042;38.994;2022-09-09T11:41:45;101628.53;;;24.98;26.81
50684;BME280;36654;45.042;38.994;2022-09-09T11:44:12;101606.94;;;24.95;26.32
50684;BME280;36654;45.042;38.994;2022-09-09T11:46:42;101614.97;;;24.98;26.75
50684;BME280;36654;45.042;38.994;2022-09-09T11:49:40;101621.22;;;25.01;26.41
50684;BME280;36654;45.042;38.994;2022-09-09T11:52:37;101607.06;;;24.92;25.96
50684;BME280;36654;45.042;38.994;2022-09-09T11:55:24;101576.47;;;24.62;26.51
50684;BME280;36654;45.042;38.994;2022-09-09T12:00:43;101606.31;;;24.89;26.59
50684;BME280;36654;45.042;38.994;2022-09-09T12:06:10;101599.09;;;24.88;26.14
50684;BME280;36654;45.042;38.994;2022-09-09T12:08:37;101606.19;;;24.92;26.41
50684;BME280;36654;45.042;38.994;2022-09-09T12:11:07;101593.53;;;24.91;26.63
50684;BME280;36654;45.042;38.994;2022-09-09T12:13:33;101605.03;;;24.99;26.26
50684;BME280;36654;45.042;38.994;2022-09-09T12:16:00;101608.66;;;24.98;26.23
50684;BME280;36654;45.042;38.994;2022-09-09T12:18:37;101595.94;;;25.00;25.96
50684;BME280;36654;45.042;38.994;2022-09-09T12:21:30;101588.91;;;24.94;26.01
50684;BME280;36654;45.042;38.994;2022-09-09T12:24:11;101585.53;;;24.88;26.38
50684;BME280;36654;45.042;38.994;2022-09-09T12:26:58;101593.66;;;24.88;26.46
50684;BME280;36654;45.042;38.994;2022-09-09T12:34:38;101589.81;;;24.95;26.32
50684;BME280;36654;45.042;38.994;2022-09-09T12:37:27;101594.94;;;25.03;26.07
50684;BME280;36654;45.042;38.994;2022-09-09T12:39:56;101586.13;;;24.96;25.97
50684;BME280;36654;45.042;38.994;2022-09-09T12:42:23;101591.63;;;24.94;26.01
50684;BME280;36654;45.042;38.994;2022-09-09T12:47:42;101543.69;;;24.70;26.07
50684;BME280;36654;45.042;38.994;2022-09-09T12:50:25;101594.34;;;24.94;26.21
50684;BME280;36654;45.042;38.994;2022-09-09T12:52:52;101594.28;;;24.96;26.24
50684;BME280;36654;45.042;38.994;2022-09-09T12:55:25;101602.41;;;24.96;26.14
50684;BME280;36654;45.042;38.994;2022-09-09T12:57:53;101594.13;;;25.01;26.18
50684;BME280;36654;45.042;38.994;2022-09-09T13:00:22;101585.69;;;25.08;26.50
50684;BME280;36654;45.042;38.994;2022-09-09T13:02:54;101563.25;;;25.05;25.84
50684;BME280;36654;45.042;38.994;2022-09-09T13:05:42;101574.66;;;25.14;25.97
50684;BME280;36654;45.042;38.994;2022-09-09T13:08:12;101577.22;;;25.19;25.62
50684;BME280;36654;45.042;38.994;2022-09-09T13:10:50;101601.56;;;25.21;25.59
50684;BME280;36654;45.042;38.994;2022-09-09T13:13:37;101586.41;;;25.13;25.52
50684;BME280;36654;45.042;38.994;2022-09-09T13:16:05;101586.69;;;25.06;25.29
50684;BME280;36654;45.042;38.994;2022-09-09T13:18:35;101601.31;;;25.02;25.24
50684;BME280;36654;45.042;38.994;2022-09-09T13:21:03;101609.63;;;24.97;25.27
50684;BME280;36654;45.042;38.994;2022-09-09T13:23:34;101592.66;;;24.90;25.39
50684;BME280;36654;45.042;38.994;2022-09-09T13:26:06;101593.66;;;24.88;25.29
50684;BME280;36654;45.042;38.994;2022-09-09T13:28:46;101596.34;;;24.89;25.56
50684;BME280;36654;45.042;38.994;2022-09-09T13:31:28;101589.81;;;24.95;25.30
50684;BME280;36654;45.042;38.994;2022-09-09T13:33:55;101582.50;;;24.97;25.36
50684;BME280;36654;45.042;38.994;2022-09-09T13:36:32;101594.22;;;24.97;25.53
50684;BME280;36654;45.042;38.994;2022-09-09T13:39:02;101602.31;;;24.99;25.74
50684;BME280;36654;45.042;38.994;2022-09-09T13:41:35;101584.94;;;25.05;25.63
50684;BME280;36654;45.042;38.994;2022-09-09T13:44:02;101592.03;;;25.09;25.47
50684;BME280;36654;45.042;38.994;2022-09-09T13:46:40;101594.91;;;25.04;25.15
50684;BME280;36654;45.042;38.994;2022-09-09T13:51:39;101589.91;;;24.92;25.59
50684;BME280;36654;45.042;38.994;2022-09-09T13:54:06;101601.88;;;24.86;25.74
50684;BME280;36654;45.042;38.994;2022-09-09T13:56:35;101593.78;;;24.85;25.99
50684;BME280;36654;45.042;38.994;2022-09-09T13:59:03;101591.06;;;24.85;26.01
50684;BME280;36654;45.042;38.994;2022-09-09T14:01:29;101585.59;;;24.86;25.75
50684;BME280;36654;45.042;38.994;2022-09-09T14:03:55;101611.38;;;24.98;26.21
50684;BME280;36654;45.042;38.994;2022-09-09T14:06:21;101597.53;;;25.06;25.93
50684;BME280;36654;45.042;38.994;2022-09-09T14:08:50;101613.66;;;25.10;25.92
50684;BME280;36654;45.042;38.994;2022-09-09T14:11:17;101610.94;;;25.10;25.65
50684;BME280;36654;45.042;38.994;2022-09-09T14:13:43;101611.66;;;25.15;25.37
50684;BME280;36654;45.042;38.994;2022-09-09T14:16:08;101599.16;;;25.61;25.17
50684;BME280;36654;45.042;38.994;2022-09-09T14:18:35;101591.25;;;26.02;24.72
50684;BME280;36654;45.042;38.994;2022-09-09T14:21:00;101585.78;;;26.04;24.51
50684;BME280;36654;45.042;38.994;2022-09-09T14:23:28;101572.72;;;25.67;24.82
50684;BME280;36654;45.042;38.994;2022-09-09T14:25:55;101500.81;;;25.06;25.28
50684;BME280;36654;45.042;38.994;2022-09-09T14:28:21;101599.22;;;25.60;25.31
50684;BME280;36654;45.042;38.994;2022-09-09T14:30:47;101555.38;;;25.47;25.50
50684;BME280;36654;45.042;38.994;2022-09-09T14:33:15;101590.56;;;25.74;25.34
50684;BME280;36654;45.042;38.994;2022-09-09T14:35:42;101597.53;;;25.81;25.45
50684;BME280;36654;45.042;38.994;2022-09-09T14:38:08;101578.28;;;25.64;25.73
50684;BME280;36654;45.042;38.994;2022-09-09T14:40:35;101598.22;;;25.63;25.60
50684;BME280;36654;45.042;38.994;2022-09-09T14:43:02;101595.63;;;25.59;25.68
50684;BME280;36654;45.042;38.994;2022-09-09T14:45:27;101588.78;;;25.49;25.73
50684;BME280;36654;45.042;38.994;2022-09-09T14:47:54;101597.25;;;25.40;26.00
50684;BME280;36654;45.042;38.994;2022-09-09T14:50:20;101602.66;;;25.40;25.99
50684;BME280;36654;45.042;38.994;2022-09-09T14:52:46;101588.72;;;25.26;25.66
50684;BME280;36654;45.042;38.994;2022-09-09T14:55:12;101585.28;;;25.21;25.98
50684;BME280;36654;45.042;38.994;2022-09-09T14:57:38;101605.00;;;25.26;26.31
50684;BME280;36654;45.042;38.994;2022-09-09T15:00:06;101599.53;;;25.27;26.16
50684;BME280;36654;45.042;38.994;2022-09-09T15:02:35;101563.28;;;25.03;26.49
50684;BME280;36654;45.042;38.994;2022-09-09T15:05:00;101520.50;;;24.61;26.25
50684;BME280;36654;45.042;38.994;2022-09-09T15:07:26;101597.94;;;24.95;26.57
50684;BME280;36654;45.042;38.994;2022-09-09T15:09:54;101599.41;;;24.79;26.77
50684;BME280;36654;45.042;38.994;2022-09-09T15:12:20;101589.88;;;24.67;27.00
50684;BME280;36654;45.042;38.994;2022-09-09T15:14:46;101601.88;;;24.60;27.24
50684;BME280;36654;45.042;38.994;2022-09-09T15:17:11;101604.63;;;24.58;27.05
50684;BME280;36654;45.042;38.994;2022-09-09T15:19:37;101548.91;;;24.21;26.92
50684;BME280;36654;45.042;38.994;2022-09-09T15:22:04;101588.22;;;24.35;27.53
50684;BME280;36654;45.042;38.994;2022-09-09T15:24:33;101608.94;;;24.36;27.56
50684;BME280;36654;45.042;38.994;2022-09-09T15:27:00;101572.00;;;24.05;27.45